sensor_id;sensor_type;location;lat;lon;timestamp;P1;durP1;ratioP1;P2;durP2;ratioP2
69246;SDS011;56358;56.328;43.992;2022-08-21T00:01:53;12.85;;;6.00;;
69246;SDS011;56358;56.328;43.992;2022-08-21T00:03:54;13.57;;;6.85;;
69246;SDS011;56358;56.328;43.992;2022-08-21T00:05:56;13.30;;;6.55;;
69246;SDS011;56358;56.328;43.992;2022-08-21T00:07:57;10.90;;;6.47;;
69246;SDS011;56358;56.328;43.992;2022-08-21T00:09:58;13.15;;;6.22;;
69246;SDS011;56358;56.328;43.992;2022-08-21T00:11:58;10.77;;;6.28;;
69246;SDS011;56358;56.328;43.992;2022-08-21T00:13:59;9.52;;;5.65;;
69246;SDS011;56358;56.328;43.992;2022-08-21T00:16:00;10.45;;;6.00;;
69246;SDS011;56358;56.328;43.992;2022-08-21T00:18:01;10.45;;;5.97;;
69246;SDS011;56358;56.328;43.992;2022-08-21T00:20:05;18.05;;;6.20;;
69246;SDS011;56358;56.328;43.992;2022-08-21T00:22:08;20.40;;;6.13;;
69246;SDS011;56358;56.328;43.992;2022-08-21T00:24:09;11.00;;;5.60;;
69246;SDS011;56358;56.328;43.992;2022-08-21T00:26:12;9.93;;;6.18;;
69246;SDS011;56358;56.328;43.992;2022-08-21T00:28:14;12.70;;;5.95;;
69246;SDS011;56358;56.328;43.992;2022-08-21T00:30:16;12.52;;;6.15;;
69246;SDS011;56358;56.328;43.992;2022-08-21T00:32:21;10.50;;;6.32;;
69246;SDS011;56358;56.328;43.992;2022-08-21T00:34:23;13.52;;;6.30;;
69246;SDS011;56358;56.328;43.992;2022-08-21T00:36:24;10.10;;;5.53;;
69246;SDS011;56358;56.328;43.992;2022-08-21T00:38:25;10.95;;;5.72;;
69246;SDS011;56358;56.328;43.992;2022-08-21T00:40:27;11.50;;;5.43;;
69246;SDS011;56358;56.328;43.992;2022-08-21T00:42:32;12.38;;;5.18;;
69246;SDS011;56358;56.328;43.992;2022-08-21T00:44:33;8.45;;;4.68;;
69246;SDS011;56358;56.328;43.992;2022-08-21T00:46:34;8.65;;;4.18;;
69246;SDS011;56358;56.328;43.992;2022-08-21T00:48:36;15.02;;;4.93;;
69246;SDS011;56358;56.328;43.992;2022-08-21T00:50:38;8.38;;;4.45;;
69246;SDS011;56358;56.328;43.992;2022-08-21T00:52:44;11.05;;;5.03;;
69246;SDS011;56358;56.328;43.992;2022-08-21T00:54:46;10.25;;;4.95;;
69246;SDS011;56358;56.328;43.992;2022-08-21T00:56:50;12.30;;;5.32;;
69246;SDS011;56358;56.328;43.992;2022-08-21T00:58:55;9.48;;;5.13;;
69246;SDS011;56358;56.328;43.992;2022-08-21T01:00:58;11.15;;;5.25;;
69246;SDS011;56358;56.328;43.992;2022-08-21T01:03:02;8.45;;;4.97;;
69246;SDS011;56358;56.328;43.992;2022-08-21T01:05:07;9.38;;;5.22;;
69246;SDS011;56358;56.328;43.992;2022-08-21T01:07:09;9.02;;;5.07;;
69246;SDS011;56358;56.328;43.992;2022-08-21T01:09:10;12.43;;;5.28;;
69246;SDS011;56358;56.328;43.992;2022-08-21T01:11:12;14.45;;;5.38;;
69246;SDS011;56358;56.328;43.992;2022-08-21T01:13:15;11.13;;;5.15;;
69246;SDS011;56358;56.328;43.992;2022-08-21T01:15:18;8.60;;;4.57;;
69246;SDS011;56358;56.328;43.992;2022-08-21T01:17:20;13.55;;;5.90;;
69246;SDS011;56358;56.328;43.992;2022-08-21T01:19:22;9.55;;;5.50;;
69246;SDS011;56358;56.328;43.992;2022-08-21T01:21:24;8.55;;;5.05;;
69246;SDS011;56358;56.328;43.992;2022-08-21T01:25:27;14.02;;;5.50;;
69246;SDS011;56358;56.328;43.992;2022-08-21T01:27:28;9.88;;;5.25;;
69246;SDS011;56358;56.328;43.992;2022-08-21T01:31:42;12.27;;;5.55;;
69246;SDS011;56358;56.328;43.992;2022-08-21T01:33:43;16.75;;;6.00;;
69246;SDS011;56358;56.328;43.992;2022-08-21T01:35:43;8.80;;;5.13;;
69246;SDS011;56358;56.328;43.992;2022-08-21T01:37:45;9.85;;;5.20;;
69246;SDS011;56358;56.328;43.992;2022-08-21T01:39:47;9.85;;;4.82;;
69246;SDS011;56358;56.328;43.992;2022-08-21T01:41:48;10.52;;;5.05;;
69246;SDS011;56358;56.328;43.992;2022-08-21T01:43:48;11.57;;;5.40;;
69246;SDS011;56358;56.328;43.992;2022-08-21T01:45:49;9.20;;;4.85;;
69246;SDS011;56358;56.328;43.992;2022-08-21T01:47:50;8.80;;;4.35;;
69246;SDS011;56358;56.328;43.992;2022-08-21T01:49:51;12.13;;;4.65;;
69246;SDS011;56358;56.328;43.992;2022-08-21T01:51:52;8.05;;;3.90;;
69246;SDS011;56358;56.328;43.992;2022-08-21T01:53:52;9.95;;;4.53;;
69246;SDS011;56358;56.328;43.992;2022-08-21T01:55:53;7.60;;;4.22;;
69246;SDS011;56358;56.328;43.992;2022-08-21T01:57:54;8.90;;;4.38;;
69246;SDS011;56358;56.328;43.992;2022-08-21T01:59:55;9.20;;;4.80;;
69246;SDS011;56358;56.328;43.992;2022-08-21T02:01:55;8.60;;;4.57;;
69246;SDS011;56358;56.328;43.992;2022-08-21T02:03:56;7.78;;;4.53;;
69246;SDS011;56358;56.328;43.992;2022-08-21T02:05:58;12.57;;;4.55;;
69246;SDS011;56358;56.328;43.992;2022-08-21T02:07:59;9.60;;;4.88;;
69246;SDS011;56358;56.328;43.992;2022-08-21T02:10:03;9.70;;;4.70;;
69246;SDS011;56358;56.328;43.992;2022-08-21T02:12:06;9.85;;;4.85;;
69246;SDS011;56358;56.328;43.992;2022-08-21T02:14:10;9.23;;;4.50;;
69246;SDS011;56358;56.328;43.992;2022-08-21T02:16:14;11.93;;;5.18;;
69246;SDS011;56358;56.328;43.992;2022-08-21T02:18:15;8.75;;;4.90;;
69246;SDS011;56358;56.328;43.992;2022-08-21T02:20:18;7.18;;;4.53;;
69246;SDS011;56358;56.328;43.992;2022-08-21T02:22:22;12.50;;;4.78;;
69246;SDS011;56358;56.328;43.992;2022-08-21T02:24:22;11.77;;;4.70;;
69246;SDS011;56358;56.328;43.992;2022-08-21T02:26:23;11.07;;;4.60;;
69246;SDS011;56358;56.328;43.992;2022-08-21T02:28:24;10.77;;;4.63;;
69246;SDS011;56358;56.328;43.992;2022-08-21T02:30:27;10.07;;;4.80;;
69246;SDS011;56358;56.328;43.992;2022-08-21T02:32:31;8.60;;;4.63;;
69246;SDS011;56358;56.328;43.992;2022-08-21T02:34:31;12.40;;;5.05;;
69246;SDS011;56358;56.328;43.992;2022-08-21T02:36:32;9.45;;;4.95;;
69246;SDS011;56358;56.328;43.992;2022-08-21T02:38:34;7.88;;;4.60;;
69246;SDS011;56358;56.328;43.992;2022-08-21T02:40:40;8.75;;;4.28;;
69246;SDS011;56358;56.328;43.992;2022-08-21T02:42:41;8.25;;;4.45;;
69246;SDS011;56358;56.328;43.992;2022-08-21T02:44:43;10.45;;;4.40;;
69246;SDS011;56358;56.328;43.992;2022-08-21T02:46:44;9.35;;;4.30;;
69246;SDS011;56358;56.328;43.992;2022-08-21T02:48:45;9.15;;;4.32;;
69246;SDS011;56358;56.328;43.992;2022-08-21T02:50:54;10.63;;;4.28;;
69246;SDS011;56358;56.328;43.992;2022-08-21T02:53:00;10.35;;;4.35;;
69246;SDS011;56358;56.328;43.992;2022-08-21T02:55:01;10.27;;;4.22;;
69246;SDS011;56358;56.328;43.992;2022-08-21T02:57:03;12.75;;;4.53;;
69246;SDS011;56358;56.328;43.992;2022-08-21T02:59:04;11.40;;;3.88;;
69246;SDS011;56358;56.328;43.992;2022-08-21T03:01:05;14.10;;;4.82;;
69246;SDS011;56358;56.328;43.992;2022-08-21T03:03:09;6.63;;;4.13;;
69246;SDS011;56358;56.328;43.992;2022-08-21T03:05:12;13.57;;;5.00;;
69246;SDS011;56358;56.328;43.992;2022-08-21T03:07:14;10.00;;;5.00;;
69246;SDS011;56358;56.328;43.992;2022-08-21T03:09:15;8.93;;;4.93;;
69246;SDS011;56358;56.328;43.992;2022-08-21T03:11:16;7.43;;;4.00;;
69246;SDS011;56358;56.328;43.992;2022-08-21T03:13:18;11.50;;;4.47;;
69246;SDS011;56358;56.328;43.992;2022-08-21T03:15:21;11.65;;;4.30;;
69246;SDS011;56358;56.328;43.992;2022-08-21T03:17:26;9.73;;;3.85;;
69246;SDS011;56358;56.328;43.992;2022-08-21T03:19:27;9.93;;;4.43;;
69246;SDS011;56358;56.328;43.992;2022-08-21T03:21:28;13.02;;;4.78;;
69246;SDS011;56358;56.328;43.992;2022-08-21T03:23:29;9.77;;;4.80;;
69246;SDS011;56358;56.328;43.992;2022-08-21T03:25:30;8.07;;;4.40;;
69246;SDS011;56358;56.328;43.992;2022-08-21T03:27:32;8.18;;;4.28;;
69246;SDS011;56358;56.328;43.992;2022-08-21T03:29:34;8.93;;;4.50;;
69246;SDS011;56358;56.328;43.992;2022-08-21T03:31:34;10.00;;;5.28;;
69246;SDS011;56358;56.328;43.992;2022-08-21T03:33:35;9.32;;;4.90;;
69246;SDS011;56358;56.328;43.992;2022-08-21T03:35:36;10.60;;;4.78;;
69246;SDS011;56358;56.328;43.992;2022-08-21T03:37:37;15.45;;;5.00;;
69246;SDS011;56358;56.328;43.992;2022-08-21T03:39:38;9.25;;;4.78;;
69246;SDS011;56358;56.328;43.992;2022-08-21T03:41:38;9.63;;;4.40;;
69246;SDS011;56358;56.328;43.992;2022-08-21T03:43:39;8.88;;;4.68;;
69246;SDS011;56358;56.328;43.992;2022-08-21T03:45:40;9.65;;;4.95;;
69246;SDS011;56358;56.328;43.992;2022-08-21T03:47:57;11.50;;;5.22;;
69246;SDS011;56358;56.328;43.992;2022-08-21T03:49:59;13.07;;;5.13;;
69246;SDS011;56358;56.328;43.992;2022-08-21T03:52:00;10.05;;;4.53;;
69246;SDS011;56358;56.328;43.992;2022-08-21T03:54:01;9.05;;;4.95;;
69246;SDS011;56358;56.328;43.992;2022-08-21T03:56:03;9.00;;;4.60;;
69246;SDS011;56358;56.328;43.992;2022-08-21T03:58:04;10.10;;;4.40;;
69246;SDS011;56358;56.328;43.992;2022-08-21T04:00:06;7.78;;;4.50;;
69246;SDS011;56358;56.328;43.992;2022-08-21T04:02:10;11.40;;;5.20;;
69246;SDS011;56358;56.328;43.992;2022-08-21T04:04:12;11.05;;;5.18;;
69246;SDS011;56358;56.328;43.992;2022-08-21T04:06:13;7.70;;;4.75;;
69246;SDS011;56358;56.328;43.992;2022-08-21T04:08:14;9.23;;;4.57;;
69246;SDS011;56358;56.328;43.992;2022-08-21T04:10:17;10.75;;;5.25;;
69246;SDS011;56358;56.328;43.992;2022-08-21T04:12:18;11.90;;;4.88;;
69246;SDS011;56358;56.328;43.992;2022-08-21T04:14:19;12.25;;;5.28;;
69246;SDS011;56358;56.328;43.992;2022-08-21T04:16:20;12.23;;;5.30;;
69246;SDS011;56358;56.328;43.992;2022-08-21T04:18:21;9.25;;;5.20;;
69246;SDS011;56358;56.328;43.992;2022-08-21T04:20:22;10.73;;;5.85;;
69246;SDS011;56358;56.328;43.992;2022-08-21T04:22:24;11.95;;;5.70;;
69246;SDS011;56358;56.328;43.992;2022-08-21T04:24:25;12.55;;;6.68;;
69246;SDS011;56358;56.328;43.992;2022-08-21T04:26:26;14.18;;;6.38;;
69246;SDS011;56358;56.328;43.992;2022-08-21T04:28:27;12.80;;;7.18;;
69246;SDS011;56358;56.328;43.992;2022-08-21T04:30:28;21.08;;;8.02;;
69246;SDS011;56358;56.328;43.992;2022-08-21T04:32:28;17.90;;;8.98;;
69246;SDS011;56358;56.328;43.992;2022-08-21T04:34:30;18.60;;;9.88;;
69246;SDS011;56358;56.328;43.992;2022-08-21T04:36:31;22.25;;;11.15;;
69246;SDS011;56358;56.328;43.992;2022-08-21T04:38:33;24.48;;;12.48;;
69246;SDS011;56358;56.328;43.992;2022-08-21T04:40:34;24.70;;;12.65;;
69246;SDS011;56358;56.328;43.992;2022-08-21T04:42:40;24.45;;;12.93;;
69246;SDS011;56358;56.328;43.992;2022-08-21T04:44:47;30.33;;;15.18;;
69246;SDS011;56358;56.328;43.992;2022-08-21T04:48:49;32.97;;;17.05;;
69246;SDS011;56358;56.328;43.992;2022-08-21T04:51:33;36.30;;;16.63;;
69246;SDS011;56358;56.328;43.992;2022-08-21T04:55:27;42.08;;;20.50;;
69246;SDS011;56358;56.328;43.992;2022-08-21T04:57:28;38.72;;;20.98;;
69246;SDS011;56358;56.328;43.992;2022-08-21T04:59:31;46.42;;;22.55;;
69246;SDS011;56358;56.328;43.992;2022-08-21T05:01:36;42.47;;;21.80;;
69246;SDS011;56358;56.328;43.992;2022-08-21T05:03:38;48.28;;;20.00;;
69246;SDS011;56358;56.328;43.992;2022-08-21T05:05:40;42.15;;;20.70;;
69246;SDS011;56358;56.328;43.992;2022-08-21T05:07:41;41.78;;;21.70;;
69246;SDS011;56358;56.328;43.992;2022-08-21T05:09:44;46.58;;;21.23;;
69246;SDS011;56358;56.328;43.992;2022-08-21T05:11:45;42.95;;;22.08;;
69246;SDS011;56358;56.328;43.992;2022-08-21T05:13:46;42.10;;;18.75;;
69246;SDS011;56358;56.328;43.992;2022-08-21T05:15:47;40.45;;;18.77;;
69246;SDS011;56358;56.328;43.992;2022-08-21T05:17:47;41.25;;;18.50;;
69246;SDS011;56358;56.328;43.992;2022-08-21T05:19:48;33.17;;;17.20;;
69246;SDS011;56358;56.328;43.992;2022-08-21T05:21:49;31.45;;;16.77;;
69246;SDS011;56358;56.328;43.992;2022-08-21T05:23:50;37.33;;;16.95;;
69246;SDS011;56358;56.328;43.992;2022-08-21T05:25:51;33.08;;;17.10;;
69246;SDS011;56358;56.328;43.992;2022-08-21T05:27:53;38.22;;;17.13;;
69246;SDS011;56358;56.328;43.992;2022-08-21T05:29:54;35.00;;;17.88;;
69246;SDS011;56358;56.328;43.992;2022-08-21T05:31:54;35.15;;;18.13;;
69246;SDS011;56358;56.328;43.992;2022-08-21T05:33:56;34.75;;;17.90;;
69246;SDS011;56358;56.328;43.992;2022-08-21T05:35:56;45.10;;;23.65;;
69246;SDS011;56358;56.328;43.992;2022-08-21T05:37:57;51.47;;;26.73;;
69246;SDS011;56358;56.328;43.992;2022-08-21T05:40:00;49.53;;;25.88;;
69246;SDS011;56358;56.328;43.992;2022-08-21T05:42:03;65.32;;;33.95;;
69246;SDS011;56358;56.328;43.992;2022-08-21T05:44:04;62.85;;;31.67;;
69246;SDS011;56358;56.328;43.992;2022-08-21T05:46:05;70.80;;;36.35;;
69246;SDS011;56358;56.328;43.992;2022-08-21T05:48:10;70.05;;;33.33;;
69246;SDS011;56358;56.328;43.992;2022-08-21T05:50:15;92.57;;;46.58;;
69246;SDS011;56358;56.328;43.992;2022-08-21T05:52:19;91.50;;;48.22;;
69246;SDS011;56358;56.328;43.992;2022-08-21T05:54:21;71.35;;;36.20;;
69246;SDS011;56358;56.328;43.992;2022-08-21T05:56:22;58.92;;;30.25;;
69246;SDS011;56358;56.328;43.992;2022-08-21T05:58:22;69.55;;;34.95;;
69246;SDS011;56358;56.328;43.992;2022-08-21T06:00:23;99.03;;;48.97;;
69246;SDS011;56358;56.328;43.992;2022-08-21T06:02:24;89.85;;;45.33;;
69246;SDS011;56358;56.328;43.992;2022-08-21T06:04:24;88.78;;;45.53;;
69246;SDS011;56358;56.328;43.992;2022-08-21T06:06:25;89.05;;;46.67;;
69246;SDS011;56358;56.328;43.992;2022-08-21T06:08:26;91.95;;;47.78;;
69246;SDS011;56358;56.328;43.992;2022-08-21T06:10:28;103.32;;;52.05;;
69246;SDS011;56358;56.328;43.992;2022-08-21T06:12:29;99.57;;;51.97;;
69246;SDS011;56358;56.328;43.992;2022-08-21T06:14:29;99.40;;;52.60;;
69246;SDS011;56358;56.328;43.992;2022-08-21T06:16:30;95.15;;;47.90;;
69246;SDS011;56358;56.328;43.992;2022-08-21T06:18:30;77.13;;;36.05;;
69246;SDS011;56358;56.328;43.992;2022-08-21T06:20:31;80.88;;;39.50;;
69246;SDS011;56358;56.328;43.992;2022-08-21T06:22:32;61.42;;;30.35;;
69246;SDS011;56358;56.328;43.992;2022-08-21T06:24:33;52.60;;;24.27;;
69246;SDS011;56358;56.328;43.992;2022-08-21T06:26:34;44.83;;;22.83;;
69246;SDS011;56358;56.328;43.992;2022-08-21T06:28:35;44.88;;;24.52;;
69246;SDS011;56358;56.328;43.992;2022-08-21T06:30:37;39.70;;;21.13;;
69246;SDS011;56358;56.328;43.992;2022-08-21T06:32:39;47.10;;;23.33;;
69246;SDS011;56358;56.328;43.992;2022-08-21T06:34:40;43.67;;;22.50;;
69246;SDS011;56358;56.328;43.992;2022-08-21T06:36:41;50.50;;;25.63;;
69246;SDS011;56358;56.328;43.992;2022-08-21T06:38:42;46.97;;;24.30;;
69246;SDS011;56358;56.328;43.992;2022-08-21T06:40:43;47.97;;;23.63;;
69246;SDS011;56358;56.328;43.992;2022-08-21T06:42:44;48.22;;;24.65;;
69246;SDS011;56358;56.328;43.992;2022-08-21T06:44:45;46.55;;;23.90;;
69246;SDS011;56358;56.328;43.992;2022-08-21T06:46:46;48.08;;;25.92;;
69246;SDS011;56358;56.328;43.992;2022-08-21T06:48:47;47.40;;;24.65;;
69246;SDS011;56358;56.328;43.992;2022-08-21T06:50:48;50.33;;;26.05;;
69246;SDS011;56358;56.328;43.992;2022-08-21T06:52:48;50.63;;;27.27;;
69246;SDS011;56358;56.328;43.992;2022-08-21T06:54:49;44.83;;;24.92;;
69246;SDS011;56358;56.328;43.992;2022-08-21T06:56:50;46.80;;;24.98;;
69246;SDS011;56358;56.328;43.992;2022-08-21T06:58:51;45.53;;;23.88;;
69246;SDS011;56358;56.328;43.992;2022-08-21T07:00:52;46.40;;;23.60;;
69246;SDS011;56358;56.328;43.992;2022-08-21T07:02:53;49.08;;;23.00;;
69246;SDS011;56358;56.328;43.992;2022-08-21T07:04:54;43.25;;;19.25;;
69246;SDS011;56358;56.328;43.992;2022-08-21T07:06:54;35.78;;;18.75;;
69246;SDS011;56358;56.328;43.992;2022-08-21T07:08:55;31.58;;;17.20;;
69246;SDS011;56358;56.328;43.992;2022-08-21T07:10:57;31.30;;;14.98;;
69246;SDS011;56358;56.328;43.992;2022-08-21T07:13:01;25.70;;;14.05;;
69246;SDS011;56358;56.328;43.992;2022-08-21T07:15:02;18.88;;;10.70;;
69246;SDS011;56358;56.328;43.992;2022-08-21T07:17:04;22.20;;;10.95;;
69246;SDS011;56358;56.328;43.992;2022-08-21T07:19:05;19.38;;;9.63;;
69246;SDS011;56358;56.328;43.992;2022-08-21T07:21:06;19.95;;;9.63;;
69246;SDS011;56358;56.328;43.992;2022-08-21T07:23:12;17.47;;;9.20;;
69246;SDS011;56358;56.328;43.992;2022-08-21T07:27:21;15.55;;;6.82;;
69246;SDS011;56358;56.328;43.992;2022-08-21T07:29:22;12.57;;;6.88;;
69246;SDS011;56358;56.328;43.992;2022-08-21T07:31:23;15.48;;;7.22;;
69246;SDS011;56358;56.328;43.992;2022-08-21T07:33:26;13.75;;;6.53;;
69246;SDS011;56358;56.328;43.992;2022-08-21T07:35:29;14.77;;;7.47;;
69246;SDS011;56358;56.328;43.992;2022-08-21T07:37:31;12.73;;;6.80;;
69246;SDS011;56358;56.328;43.992;2022-08-21T07:39:31;15.15;;;6.82;;
69246;SDS011;56358;56.328;43.992;2022-08-21T07:41:32;15.45;;;7.10;;
69246;SDS011;56358;56.328;43.992;2022-08-21T07:43:36;16.15;;;8.75;;
69246;SDS011;56358;56.328;43.992;2022-08-21T07:47:38;16.13;;;7.75;;
69246;SDS011;56358;56.328;43.992;2022-08-21T07:49:39;17.08;;;8.57;;
69246;SDS011;56358;56.328;43.992;2022-08-21T07:51:40;9.18;;;4.55;;
69246;SDS011;56358;56.328;43.992;2022-08-21T07:53:40;9.93;;;4.10;;
69246;SDS011;56358;56.328;43.992;2022-08-21T07:55:41;6.32;;;3.95;;
69246;SDS011;56358;56.328;43.992;2022-08-21T07:57:43;8.10;;;4.00;;
69246;SDS011;56358;56.328;43.992;2022-08-21T07:59:44;8.40;;;4.10;;
69246;SDS011;56358;56.328;43.992;2022-08-21T08:01:45;9.18;;;4.10;;
69246;SDS011;56358;56.328;43.992;2022-08-21T08:03:45;7.30;;;3.60;;
69246;SDS011;56358;56.328;43.992;2022-08-21T08:05:46;6.50;;;3.47;;
69246;SDS011;56358;56.328;43.992;2022-08-21T08:07:47;8.27;;;3.58;;
69246;SDS011;56358;56.328;43.992;2022-08-21T08:09:48;7.20;;;3.88;;
69246;SDS011;56358;56.328;43.992;2022-08-21T08:11:49;5.88;;;3.10;;
69246;SDS011;56358;56.328;43.992;2022-08-21T08:13:51;6.43;;;3.13;;
69246;SDS011;56358;56.328;43.992;2022-08-21T08:15:52;6.35;;;3.00;;
69246;SDS011;56358;56.328;43.992;2022-08-21T08:17:53;8.77;;;3.78;;
69246;SDS011;56358;56.328;43.992;2022-08-21T08:19:55;7.70;;;2.97;;
69246;SDS011;56358;56.328;43.992;2022-08-21T08:21:56;9.30;;;3.50;;
69246;SDS011;56358;56.328;43.992;2022-08-21T08:23:56;7.70;;;3.33;;
69246;SDS011;56358;56.328;43.992;2022-08-21T08:25:58;6.55;;;3.00;;
69246;SDS011;56358;56.328;43.992;2022-08-21T08:27:59;7.55;;;3.95;;
69246;SDS011;56358;56.328;43.992;2022-08-21T08:29:59;7.80;;;3.40;;
69246;SDS011;56358;56.328;43.992;2022-08-21T08:32:04;9.18;;;3.35;;
69246;SDS011;56358;56.328;43.992;2022-08-21T08:34:07;7.38;;;2.95;;
69246;SDS011;56358;56.328;43.992;2022-08-21T08:36:17;6.88;;;3.10;;
69246;SDS011;56358;56.328;43.992;2022-08-21T08:38:19;5.15;;;3.03;;
69246;SDS011;56358;56.328;43.992;2022-08-21T08:40:32;5.28;;;2.90;;
69246;SDS011;56358;56.328;43.992;2022-08-21T08:42:40;7.03;;;3.22;;
69246;SDS011;56358;56.328;43.992;2022-08-21T08:44:41;5.82;;;2.60;;
69246;SDS011;56358;56.328;43.992;2022-08-21T08:46:46;9.35;;;3.10;;
69246;SDS011;56358;56.328;43.992;2022-08-21T08:48:55;6.13;;;2.92;;
69246;SDS011;56358;56.328;43.992;2022-08-21T08:51:02;5.32;;;2.55;;
69246;SDS011;56358;56.328;43.992;2022-08-21T08:53:14;6.15;;;2.72;;
69246;SDS011;56358;56.328;43.992;2022-08-21T08:55:38;4.07;;;2.55;;
69246;SDS011;56358;56.328;43.992;2022-08-21T08:57:42;7.85;;;2.70;;
69246;SDS011;56358;56.328;43.992;2022-08-21T08:59:48;4.35;;;2.72;;
69246;SDS011;56358;56.328;43.992;2022-08-21T09:01:55;5.30;;;3.00;;
69246;SDS011;56358;56.328;43.992;2022-08-21T09:03:56;4.72;;;2.63;;
69246;SDS011;56358;56.328;43.992;2022-08-21T09:06:10;6.85;;;2.55;;
69246;SDS011;56358;56.328;43.992;2022-08-21T09:13:37;6.20;;;2.92;;
69246;SDS011;56358;56.328;43.992;2022-08-21T09:16:04;7.55;;;2.80;;
69246;SDS011;56358;56.328;43.992;2022-08-21T09:25:12;5.60;;;2.35;;
69246;SDS011;56358;56.328;43.992;2022-08-21T09:27:22;5.30;;;2.58;;
69246;SDS011;56358;56.328;43.992;2022-08-21T09:29:24;7.38;;;2.80;;
69246;SDS011;56358;56.328;43.992;2022-08-21T09:33:34;6.07;;;2.63;;
69246;SDS011;56358;56.328;43.992;2022-08-21T09:35:35;4.50;;;2.53;;
69246;SDS011;56358;56.328;43.992;2022-08-21T09:37:51;3.97;;;2.30;;
69246;SDS011;56358;56.328;43.992;2022-08-21T09:39:54;8.00;;;2.58;;
69246;SDS011;56358;56.328;43.992;2022-08-21T09:41:58;6.47;;;2.80;;
69246;SDS011;56358;56.328;43.992;2022-08-21T09:44:04;5.05;;;2.42;;
69246;SDS011;56358;56.328;43.992;2022-08-21T09:46:09;4.95;;;2.70;;
69246;SDS011;56358;56.328;43.992;2022-08-21T09:48:19;5.72;;;2.78;;
69246;SDS011;56358;56.328;43.992;2022-08-21T09:50:22;6.20;;;2.60;;
69246;SDS011;56358;56.328;43.992;2022-08-21T09:52:25;5.80;;;2.80;;
69246;SDS011;56358;56.328;43.992;2022-08-21T09:54:28;7.65;;;2.75;;
69246;SDS011;56358;56.328;43.992;2022-08-21T09:56:39;5.88;;;2.65;;
69246;SDS011;56358;56.328;43.992;2022-08-21T09:59:30;5.68;;;2.60;;
69246;SDS011;56358;56.328;43.992;2022-08-21T10:01:32;6.40;;;2.63;;
69246;SDS011;56358;56.328;43.992;2022-08-21T10:03:43;4.57;;;2.67;;
69246;SDS011;56358;56.328;43.992;2022-08-21T10:05:52;7.20;;;2.53;;
69246;SDS011;56358;56.328;43.992;2022-08-21T10:08:01;5.97;;;2.78;;
69246;SDS011;56358;56.328;43.992;2022-08-21T10:10:14;5.07;;;2.70;;
69246;SDS011;56358;56.328;43.992;2022-08-21T10:12:21;4.80;;;2.50;;
69246;SDS011;56358;56.328;43.992;2022-08-21T10:19:14;5.22;;;2.45;;
69246;SDS011;56358;56.328;43.992;2022-08-21T10:21:39;4.55;;;2.50;;
69246;SDS011;56358;56.328;43.992;2022-08-21T10:31:03;6.68;;;2.83;;
69246;SDS011;56358;56.328;43.992;2022-08-21T10:44:55;6.65;;;2.45;;
69246;SDS011;56358;56.328;43.992;2022-08-21T10:54:04;6.70;;;2.42;;
69246;SDS011;56358;56.328;43.992;2022-08-21T10:56:17;6.00;;;2.40;;
69246;SDS011;56358;56.328;43.992;2022-08-21T10:58:37;5.07;;;2.72;;
69246;SDS011;56358;56.328;43.992;2022-08-21T11:00:46;8.50;;;2.65;;
69246;SDS011;56358;56.328;43.992;2022-08-21T11:03:12;6.03;;;2.15;;
69246;SDS011;56358;56.328;43.992;2022-08-21T11:07:21;5.90;;;2.55;;
69246;SDS011;56358;56.328;43.992;2022-08-21T11:09:28;5.25;;;2.38;;
69246;SDS011;56358;56.328;43.992;2022-08-21T11:11:31;3.80;;;2.50;;
69246;SDS011;56358;56.328;43.992;2022-08-21T11:13:38;5.38;;;2.20;;
69246;SDS011;56358;56.328;43.992;2022-08-21T11:15:48;4.40;;;2.30;;
69246;SDS011;56358;56.328;43.992;2022-08-21T11:18:05;5.60;;;2.07;;
69246;SDS011;56358;56.328;43.992;2022-08-21T11:20:18;8.35;;;2.20;;
69246;SDS011;56358;56.328;43.992;2022-08-21T11:22:37;3.80;;;2.33;;
69246;SDS011;56358;56.328;43.992;2022-08-21T11:25:11;5.18;;;2.40;;
69246;SDS011;56358;56.328;43.992;2022-08-21T11:29:41;8.30;;;2.30;;
69246;SDS011;56358;56.328;43.992;2022-08-21T11:34:29;4.03;;;2.45;;
69246;SDS011;56358;56.328;43.992;2022-08-21T11:41:43;5.70;;;2.25;;
69246;SDS011;56358;56.328;43.992;2022-08-21T11:43:59;5.60;;;2.58;;
69246;SDS011;56358;56.328;43.992;2022-08-21T11:50:44;4.25;;;2.65;;
69246;SDS011;56358;56.328;43.992;2022-08-21T11:52:57;3.22;;;2.38;;
69246;SDS011;56358;56.328;43.992;2022-08-21T11:55:02;6.28;;;2.22;;
69246;SDS011;56358;56.328;43.992;2022-08-21T11:57:22;4.13;;;2.22;;
69246;SDS011;56358;56.328;43.992;2022-08-21T11:59:32;5.25;;;2.22;;
69246;SDS011;56358;56.328;43.992;2022-08-21T12:01:41;4.40;;;2.40;;
69246;SDS011;56358;56.328;43.992;2022-08-21T12:08:41;6.47;;;2.40;;
69246;SDS011;56358;56.328;43.992;2022-08-21T12:10:47;7.10;;;2.80;;
69246;SDS011;56358;56.328;43.992;2022-08-21T12:13:11;5.72;;;2.05;;
69246;SDS011;56358;56.328;43.992;2022-08-21T12:17:35;5.97;;;2.33;;
69246;SDS011;56358;56.328;43.992;2022-08-21T12:19:37;4.32;;;2.40;;
69246;SDS011;56358;56.328;43.992;2022-08-21T12:24:15;7.22;;;2.33;;
69246;SDS011;56358;56.328;43.992;2022-08-21T12:26:23;3.65;;;2.22;;
69246;SDS011;56358;56.328;43.992;2022-08-21T12:28:27;6.57;;;2.50;;
69246;SDS011;56358;56.328;43.992;2022-08-21T12:30:34;3.92;;;2.40;;
69246;SDS011;56358;56.328;43.992;2022-08-21T12:34:50;4.72;;;2.33;;
69246;SDS011;56358;56.328;43.992;2022-08-21T12:39:24;6.28;;;2.45;;
69246;SDS011;56358;56.328;43.992;2022-08-21T12:41:28;5.38;;;2.42;;
69246;SDS011;56358;56.328;43.992;2022-08-21T12:43:35;5.53;;;2.40;;
69246;SDS011;56358;56.328;43.992;2022-08-21T12:45:45;5.97;;;2.17;;
69246;SDS011;56358;56.328;43.992;2022-08-21T12:47:54;3.80;;;2.08;;
69246;SDS011;56358;56.328;43.992;2022-08-21T12:50:08;7.07;;;2.20;;
69246;SDS011;56358;56.328;43.992;2022-08-21T12:54:31;7.10;;;2.38;;
69246;SDS011;56358;56.328;43.992;2022-08-21T12:56:37;9.95;;;2.13;;
69246;SDS011;56358;56.328;43.992;2022-08-21T12:58:40;7.72;;;2.60;;
69246;SDS011;56358;56.328;43.992;2022-08-21T13:01:05;5.53;;;2.45;;
69246;SDS011;56358;56.328;43.992;2022-08-21T13:03:13;6.10;;;2.03;;
69246;SDS011;56358;56.328;43.992;2022-08-21T13:05:23;3.70;;;2.30;;
69246;SDS011;56358;56.328;43.992;2022-08-21T13:07:37;4.35;;;2.60;;
69246;SDS011;56358;56.328;43.992;2022-08-21T13:09:41;5.25;;;2.35;;
69246;SDS011;56358;56.328;43.992;2022-08-21T13:11:58;6.47;;;2.60;;
69246;SDS011;56358;56.328;43.992;2022-08-21T13:14:00;4.28;;;2.20;;
69246;SDS011;56358;56.328;43.992;2022-08-21T13:16:04;7.13;;;3.08;;
69246;SDS011;56358;56.328;43.992;2022-08-21T13:18:07;4.80;;;2.45;;
69246;SDS011;56358;56.328;43.992;2022-08-21T13:20:30;4.85;;;2.75;;
69246;SDS011;56358;56.328;43.992;2022-08-21T13:22:31;5.95;;;2.70;;
69246;SDS011;56358;56.328;43.992;2022-08-21T13:24:35;6.60;;;3.35;;
69246;SDS011;56358;56.328;43.992;2022-08-21T13:26:37;6.50;;;2.75;;
69246;SDS011;56358;56.328;43.992;2022-08-21T13:28:38;7.88;;;2.40;;
69246;SDS011;56358;56.328;43.992;2022-08-21T13:30:42;4.43;;;2.00;;
69246;SDS011;56358;56.328;43.992;2022-08-21T13:32:47;8.93;;;2.60;;
69246;SDS011;56358;56.328;43.992;2022-08-21T13:34:50;6.95;;;2.50;;
69246;SDS011;56358;56.328;43.992;2022-08-21T13:36:53;5.70;;;2.80;;
69246;SDS011;56358;56.328;43.992;2022-08-21T13:38:57;5.22;;;2.90;;
69246;SDS011;56358;56.328;43.992;2022-08-21T13:41:05;8.55;;;2.55;;